createdAt,value
2024-03-12T00:01:45.370Z,7.20
2024-03-12T00:04:16.099Z,7.20
2024-03-12T00:06:44.324Z,7.20
2024-03-12T00:09:12.272Z,7.20
2024-03-12T00:11:40.187Z,7.20
2024-03-12T00:14:08.109Z,7.20
2024-03-12T00:16:36.289Z,7.30
2024-03-12T00:19:04.567Z,7.30
2024-03-12T00:21:36.840Z,7.30
2024-03-12T00:24:05.196Z,7.20
2024-03-12T00:26:34.118Z,7.20
2024-03-12T00:29:02.624Z,7.20
2024-03-12T00:31:30.557Z,7.20
2024-03-12T00:34:01.331Z,7.20
2024-03-12T00:36:29.994Z,7.20
2024-03-12T00:38:59.806Z,7.20
2024-03-12T00:41:30.067Z,7.10
2024-03-12T00:43:58.013Z,7.00
2024-03-12T00:46:25.885Z,7.00
2024-03-12T00:48:54.018Z,6.90
2024-03-12T00:51:23.631Z,6.90
2024-03-12T00:53:51.516Z,6.80
2024-03-12T00:56:22.579Z,6.80
2024-03-12T00:58:52.037Z,6.90
2024-03-12T01:01:21.327Z,6.80
2024-03-12T01:03:49.739Z,6.80
2024-03-12T01:06:17.720Z,6.80
2024-03-12T01:08:47.362Z,6.80
2024-03-12T01:11:15.439Z,6.70
2024-03-12T01:13:45.546Z,6.60
2024-03-12T01:16:13.703Z,6.60
2024-03-12T01:18:41.668Z,6.70
2024-03-12T01:21:09.750Z,6.70
2024-03-12T01:23:37.717Z,6.60
2024-03-12T01:26:07.748Z,6.40
2024-03-12T01:28:36.347Z,6.30
2024-03-12T01:31:07.106Z,6.10
2024-03-12T01:33:36.115Z,6.00
2024-03-12T01:36:19.596Z,5.90
2024-03-12T01:38:49.830Z,5.70
2024-03-12T01:41:18.084Z,5.70
2024-03-12T01:43:55.892Z,5.60
2024-03-12T01:46:25.290Z,5.50
2024-03-12T01:48:55.074Z,5.50
2024-03-12T01:51:23.073Z,5.50
2024-03-12T01:53:50.960Z,5.30
2024-03-12T01:56:19.151Z,5.30
2024-03-12T01:58:47.042Z,5.20
2024-03-12T02:01:15.103Z,5.10
2024-03-12T02:03:49.405Z,5.10
2024-03-12T02:06:17.424Z,5.20
2024-03-12T02:08:45.778Z,5.20
2024-03-12T02:11:14.065Z,5.10
2024-03-12T02:13:42.387Z,5.20
2024-03-12T02:16:11.607Z,5.30
2024-03-12T02:18:39.678Z,5.30
2024-03-12T02:21:09.806Z,5.30
2024-03-12T02:23:45.106Z,5.30
2024-03-12T02:26:13.088Z,5.30
2024-03-12T02:28:41.318Z,5.30
2024-03-12T02:31:09.327Z,5.30
2024-03-12T02:33:37.681Z,5.30
2024-03-12T02:36:07.594Z,5.30
2024-03-12T02:38:39.638Z,5.20
2024-03-12T02:41:11.355Z,5.10
2024-03-12T02:43:39.415Z,5.00
2024-03-12T02:46:09.807Z,4.90
2024-03-12T02:48:37.766Z,4.80
2024-03-12T02:51:09.817Z,4.80
2024-03-12T02:53:38.868Z,4.90
2024-03-12T02:56:08.354Z,5.10
2024-03-12T02:58:37.342Z,5.20
2024-03-12T03:01:06.262Z,5.40
2024-03-12T03:03:35.120Z,5.50
2024-03-12T03:06:03.103Z,5.70
2024-03-12T03:08:32.323Z,5.70
2024-03-12T03:11:00.632Z,5.80
2024-03-12T03:13:30.067Z,5.90
2024-03-12T03:16:00.401Z,5.90
2024-03-12T03:18:29.805Z,6.00
2024-03-12T03:20:58.381Z,6.00
2024-03-12T03:23:26.457Z,6.10
2024-03-12T03:25:54.374Z,6.10
2024-03-12T03:28:22.264Z,6.10
2024-03-12T03:30:54.559Z,6.10
2024-03-12T03:33:23.475Z,6.10
2024-03-12T03:35:52.299Z,6.00
2024-03-12T03:38:20.734Z,6.00
2024-03-12T03:40:48.987Z,6.00
2024-03-12T03:43:16.991Z,5.90
2024-03-12T03:45:45.026Z,5.90
2024-03-12T03:48:14.437Z,5.90
2024-03-12T03:50:42.706Z,5.90
2024-03-12T03:53:10.658Z,5.90
2024-03-12T03:55:40.026Z,5.90
2024-03-12T03:58:10.145Z,5.90
2024-03-12T04:00:39.110Z,6.00
2024-03-12T04:03:08.058Z,6.00
2024-03-12T04:05:37.642Z,6.00
2024-03-12T04:08:07.334Z,6.00
2024-03-12T04:10:35.370Z,6.00
2024-03-12T04:13:05.513Z,6.10
2024-03-12T04:15:35.107Z,6.20
2024-03-12T04:18:03.613Z,6.30
2024-03-12T04:20:31.686Z,6.50
2024-03-12T04:23:02.593Z,6.60
2024-03-12T04:25:30.776Z,6.70
2024-03-12T04:27:58.654Z,6.70
2024-03-12T04:30:26.625Z,6.70
2024-03-12T04:32:57.789Z,6.70
2024-03-12T04:35:27.238Z,6.70
2024-03-12T04:37:56.310Z,6.70
2024-03-12T04:40:25.868Z,6.70
2024-03-12T04:42:54.888Z,6.70
2024-03-12T04:45:23.155Z,6.60
2024-03-12T04:47:52.425Z,6.50
2024-03-12T04:50:23.967Z,6.50
2024-03-12T04:52:52.194Z,6.60
2024-03-12T04:55:20.428Z,6.50
2024-03-12T04:57:49.728Z,6.50
2024-03-12T05:00:20.599Z,6.60
2024-03-12T05:02:49.511Z,6.60
2024-03-12T05:05:19.700Z,6.60
2024-03-12T05:07:47.794Z,6.70
2024-03-12T05:10:17.119Z,6.70
2024-03-12T05:12:45.652Z,6.70
2024-03-12T05:15:15.637Z,6.70
2024-03-12T05:17:44.323Z,6.70
2024-03-12T05:20:15.418Z,6.90
2024-03-12T05:22:43.579Z,6.90
2024-03-12T05:25:20.163Z,7.00
2024-03-12T05:27:48.691Z,7.00
2024-03-12T05:30:21.432Z,7.00
2024-03-12T05:32:50.631Z,7.10
2024-03-12T05:35:22.659Z,7.10
2024-03-12T05:38:04.891Z,7.10
2024-03-12T05:40:47.820Z,7.20
2024-03-12T05:43:33.772Z,7.10
2024-03-12T05:46:20.946Z,7.10
2024-03-12T05:48:51.643Z,7.10
2024-03-12T05:51:20.593Z,7.10
2024-03-12T05:53:48.634Z,7.20
2024-03-12T05:56:21.235Z,7.30
2024-03-12T05:58:49.299Z,7.40
2024-03-12T06:01:19.126Z,7.40
2024-03-12T06:03:47.429Z,7.40
2024-03-12T06:06:15.479Z,7.40
2024-03-12T06:08:46.099Z,7.30
2024-03-12T06:11:14.652Z,7.40
2024-03-12T06:13:42.755Z,7.30
2024-03-12T06:16:10.805Z,7.40
2024-03-12T06:18:40.301Z,7.50
2024-03-12T06:21:08.591Z,7.50
2024-03-12T06:23:37.225Z,7.60
2024-03-12T06:26:08.503Z,7.60
2024-03-12T06:28:37.008Z,7.60
2024-03-12T06:31:05.914Z,7.70
2024-03-12T06:33:34.395Z,7.70
2024-03-12T06:36:03.907Z,7.80
2024-03-12T06:38:32.507Z,7.80
2024-03-12T06:41:00.422Z,7.90
2024-03-12T06:43:28.317Z,7.90
2024-03-12T06:45:56.554Z,8.00
2024-03-12T06:48:24.713Z,8.00
2024-03-12T06:50:52.784Z,8.00
2024-03-12T06:53:22.946Z,7.90
2024-03-12T06:55:50.895Z,7.90
2024-03-12T06:58:22.228Z,7.90
2024-03-12T07:00:51.508Z,7.90
2024-03-12T07:03:22.804Z,7.90
2024-03-12T07:05:51.159Z,7.90
2024-03-12T07:08:19.481Z,7.90
2024-03-12T07:10:51.788Z,7.90
2024-03-12T07:13:23.121Z,7.90
2024-03-12T07:15:51.113Z,7.90
2024-03-12T07:18:19.580Z,7.90
2024-03-12T07:20:47.584Z,8.00
2024-03-12T07:23:15.615Z,8.20
2024-03-12T07:25:44.554Z,8.20
2024-03-12T07:28:14.546Z,8.20
2024-03-12T07:30:45.451Z,8.20
2024-03-12T07:33:13.864Z,8.20
2024-03-12T07:35:42.398Z,8.30
2024-03-12T07:38:10.269Z,8.40
2024-03-12T07:40:39.382Z,8.40
2024-03-12T07:43:07.513Z,8.50
2024-03-12T07:45:37.851Z,8.60
2024-03-12T07:48:07.076Z,8.70
2024-03-12T07:50:35.973Z,8.80
2024-03-12T07:53:06.762Z,8.90
2024-03-12T07:55:36.496Z,9.00
2024-03-12T07:58:06.486Z,9.00
2024-03-12T08:00:35.960Z,9.00
2024-03-12T08:03:03.904Z,9.10
2024-03-12T08:05:35.137Z,9.20
2024-03-12T08:08:06.163Z,9.20
2024-03-12T08:10:34.293Z,9.20
2024-03-12T08:13:03.054Z,9.10
2024-03-12T08:15:31.192Z,9.20
2024-03-12T08:18:09.955Z,9.20
2024-03-12T08:20:46.935Z,9.20
2024-03-12T08:23:15.560Z,9.20
2024-03-12T08:25:54.850Z,9.30
2024-03-12T08:28:24.777Z,9.40
2024-03-12T08:30:53.117Z,9.40
2024-03-12T08:33:22.599Z,9.40
2024-03-12T08:35:50.577Z,9.40
2024-03-12T08:38:20.150Z,9.50
2024-03-12T08:40:48.217Z,9.50
2024-03-12T08:43:16.481Z,9.40
2024-03-12T08:45:45.772Z,9.40
2024-03-12T08:48:13.626Z,9.50
2024-03-12T08:50:42.836Z,9.50
2024-03-12T08:53:15.904Z,9.50
2024-03-12T08:55:44.301Z,9.50
2024-03-12T08:58:12.432Z,9.50
2024-03-12T09:00:42.299Z,9.50
2024-03-12T09:03:10.336Z,9.50
2024-03-12T09:05:38.975Z,9.50
2024-03-12T09:08:08.664Z,9.60
2024-03-12T09:10:37.896Z,9.60
2024-03-12T09:13:06.315Z,9.70
2024-03-12T09:15:34.450Z,9.80
2024-03-12T09:18:06.140Z,9.80
2024-03-12T09:20:35.282Z,9.90
2024-03-12T09:23:03.163Z,9.90
2024-03-12T09:25:32.498Z,9.90
2024-03-12T09:28:00.372Z,10.00
2024-03-12T09:30:28.424Z,10.00
2024-03-12T09:32:56.474Z,10.00
2024-03-12T09:35:25.948Z,10.00
2024-03-12T09:37:54.112Z,10.00
2024-03-12T09:40:23.108Z,10.00
2024-03-12T09:42:57.282Z,10.00
2024-03-12T09:45:25.547Z,10.00
2024-03-12T09:47:53.690Z,10.10
2024-03-12T09:50:24.423Z,10.10
2024-03-12T09:52:53.158Z,10.10
2024-03-12T09:55:22.678Z,10.10
2024-03-12T09:57:52.556Z,10.00
2024-03-12T10:00:23.869Z,10.00
2024-03-12T10:02:51.900Z,10.20
2024-03-12T10:05:22.889Z,10.30
2024-03-12T10:08:14.489Z,10.30
2024-03-12T10:10:44.325Z,10.40
2024-03-12T10:13:17.881Z,10.40
2024-03-12T10:15:57.482Z,10.50
2024-03-12T10:18:27.712Z,10.60
2024-03-12T10:20:57.636Z,10.60
2024-03-12T10:23:27.002Z,10.70
2024-03-12T10:25:57.519Z,10.70
2024-03-12T10:28:31.022Z,10.70
2024-03-12T10:31:09.400Z,10.70
2024-03-12T10:33:39.079Z,10.80
2024-03-12T10:36:12.059Z,10.80
2024-03-12T10:38:42.051Z,10.90
2024-03-12T10:41:19.291Z,10.90
2024-03-12T10:43:50.698Z,10.90
2024-03-12T10:46:20.596Z,10.90
2024-03-12T10:48:51.649Z,10.80
2024-03-12T10:51:20.716Z,10.80
2024-03-12T10:53:51.639Z,10.80
2024-03-12T10:56:20.055Z,10.80
2024-03-12T10:58:50.260Z,10.80
2024-03-12T11:01:20.394Z,10.90
2024-03-12T11:03:50.932Z,11.00
2024-03-12T11:06:21.291Z,11.00
2024-03-12T11:08:50.351Z,11.10
2024-03-12T11:11:19.641Z,11.00
2024-03-12T11:13:51.482Z,11.00
2024-03-12T11:16:22.239Z,10.90
2024-03-12T11:18:50.477Z,10.90
2024-03-12T11:21:20.801Z,10.90
2024-03-12T11:23:48.869Z,10.90
2024-03-12T11:26:17.536Z,10.90
2024-03-12T11:28:51.343Z,10.90
2024-03-12T11:31:20.780Z,10.90
2024-03-12T11:33:54.169Z,11.00
2024-03-12T11:36:29.953Z,10.90
2024-03-12T11:39:00.496Z,11.00
2024-03-12T11:42:11.961Z,10.90
2024-03-12T11:44:53.662Z,10.90
2024-03-12T11:47:32.791Z,10.80
2024-03-12T11:50:04.726Z,10.80
2024-03-12T11:52:34.850Z,10.80
2024-03-12T11:55:05.264Z,10.70
2024-03-12T11:57:33.824Z,10.70
2024-03-12T12:00:10.866Z,10.70
2024-03-12T12:02:44.537Z,10.60
2024-03-12T12:05:14.166Z,10.60
2024-03-12T12:07:42.338Z,10.50
2024-03-12T12:10:11.842Z,10.50
2024-03-12T12:12:41.342Z,10.50
2024-03-12T12:15:14.040Z,10.50
2024-03-12T12:17:42.284Z,10.40
2024-03-12T12:20:16.983Z,10.40
2024-03-12T12:22:48.115Z,10.40
2024-03-12T12:25:20.171Z,10.40
2024-03-12T12:27:48.720Z,10.50
2024-03-12T12:30:20.650Z,10.60
2024-03-12T12:32:50.832Z,10.70
2024-03-12T12:35:21.586Z,10.80
2024-03-12T12:37:51.542Z,10.90
2024-03-12T12:40:21.329Z,11.00
2024-03-12T12:42:52.446Z,11.10
2024-03-12T12:45:21.967Z,11.10
2024-03-12T12:47:50.720Z,11.20
2024-03-12T12:50:30.489Z,11.30
2024-03-12T12:53:00.390Z,11.40
2024-03-12T12:55:29.109Z,11.40
2024-03-12T12:58:02.224Z,11.50
2024-03-12T13:00:37.072Z,11.50
2024-03-12T13:03:19.517Z,11.50
2024-03-12T13:05:48.662Z,11.50
2024-03-12T13:08:30.541Z,11.50
2024-03-12T13:11:00.817Z,11.50
2024-03-12T13:13:28.991Z,11.60
2024-03-12T13:15:58.995Z,11.40
2024-03-12T13:18:26.931Z,11.50
2024-03-12T13:20:54.897Z,11.50
2024-03-12T13:23:22.889Z,11.50
2024-03-12T13:25:50.843Z,11.30
2024-03-12T13:28:18.997Z,11.20
2024-03-12T13:30:47.756Z,11.10
2024-03-12T13:33:17.221Z,11.10
2024-03-12T13:35:45.209Z,10.90
2024-03-12T13:38:15.363Z,10.90
2024-03-12T13:40:43.395Z,10.80
2024-03-12T13:43:14.168Z,10.70
2024-03-12T13:45:42.664Z,10.60
2024-03-12T13:48:12.881Z,10.60
2024-03-12T13:50:44.600Z,10.60
2024-03-12T13:53:12.974Z,10.50
2024-03-12T13:55:40.930Z,10.60
2024-03-12T13:58:11.566Z,10.60
2024-03-12T14:00:41.536Z,10.50
2024-03-12T14:03:11.685Z,10.50
2024-03-12T14:05:39.731Z,10.50
2024-03-12T14:08:09.851Z,10.40
2024-03-12T14:10:38.294Z,10.40
2024-03-12T14:13:08.140Z,10.40
2024-03-12T14:15:36.148Z,10.30
2024-03-12T14:18:04.360Z,10.30
2024-03-12T14:20:32.365Z,10.40
2024-03-12T14:23:00.370Z,10.30
2024-03-12T14:25:29.605Z,10.30
2024-03-12T14:27:57.902Z,10.30
2024-03-12T14:30:26.582Z,10.30
2024-03-12T14:32:56.148Z,10.30
2024-03-12T14:35:24.126Z,10.30
2024-03-12T14:37:52.032Z,10.30
2024-03-12T14:40:20.333Z,10.30
2024-03-12T14:42:50.196Z,10.30
2024-03-12T14:45:18.786Z,10.20
2024-03-12T14:47:46.677Z,10.20
2024-03-12T14:50:15.315Z,10.20
2024-03-12T14:52:43.329Z,10.20
2024-03-12T14:55:11.989Z,10.30
2024-03-12T14:57:39.974Z,10.20
2024-03-12T15:00:11.410Z,10.20
2024-03-12T15:02:40.342Z,10.20
2024-03-12T15:05:12.233Z,10.20
2024-03-12T15:07:42.734Z,10.30
2024-03-12T15:10:11.747Z,10.40
2024-03-12T15:12:40.761Z,10.40
2024-03-12T15:15:12.477Z,10.40
2024-03-12T15:17:41.881Z,10.50
2024-03-12T15:20:15.525Z,10.50
2024-03-12T15:22:44.228Z,10.60
2024-03-12T15:25:13.208Z,10.70
2024-03-12T15:27:42.732Z,10.80
2024-03-12T15:30:13.589Z,10.80
2024-03-12T15:32:42.766Z,10.80
2024-03-12T15:35:11.865Z,10.90
2024-03-12T15:37:40.210Z,10.80
2024-03-12T15:40:10.456Z,10.80
2024-03-12T15:42:41.030Z,10.80
2024-03-12T15:45:12.175Z,10.80
2024-03-12T15:47:43.999Z,10.80
2024-03-12T15:50:13.875Z,10.80
2024-03-12T15:52:41.976Z,10.70
2024-03-12T15:55:11.123Z,10.90
2024-03-12T15:57:40.652Z,10.80
2024-03-12T16:00:14.393Z,10.70
2024-03-12T16:02:44.175Z,10.60
2024-03-12T16:05:13.324Z,10.50
2024-03-12T16:07:41.549Z,10.40
2024-03-12T16:10:10.987Z,10.30
2024-03-12T16:12:41.704Z,10.20
2024-03-12T16:15:12.725Z,10.10
2024-03-12T16:17:41.118Z,10.10
2024-03-12T16:20:14.974Z,10.10
2024-03-12T16:22:44.384Z,10.00
2024-03-12T16:25:15.576Z,10.00
2024-03-12T16:27:45.033Z,9.90
2024-03-12T16:30:15.831Z,9.90
2024-03-12T16:32:46.090Z,9.90
2024-03-12T16:35:17.039Z,9.80
2024-03-12T16:37:45.287Z,9.80
2024-03-12T16:40:14.008Z,9.80
2024-03-12T16:42:43.711Z,9.80
2024-03-12T16:45:12.330Z,9.80
2024-03-12T16:47:43.145Z,9.80
2024-03-12T16:50:12.325Z,9.80
2024-03-12T16:52:43.083Z,9.80
2024-03-12T16:55:11.888Z,9.90
2024-03-12T16:57:40.679Z,9.80
2024-03-12T17:00:12.005Z,9.80
2024-03-12T17:02:44.007Z,9.70
2024-03-12T17:05:14.036Z,9.70
2024-03-12T17:07:51.054Z,9.70
2024-03-12T17:10:19.815Z,9.70
2024-03-12T17:12:48.466Z,9.70
2024-03-12T17:15:17.475Z,9.70
2024-03-12T17:17:46.079Z,9.70
2024-03-12T17:20:16.326Z,9.70
2024-03-12T17:22:46.416Z,9.60
2024-03-12T17:25:18.271Z,9.70
2024-03-12T17:27:50.642Z,9.70
2024-03-12T17:30:21.149Z,9.70
2024-03-12T17:32:50.699Z,9.70
2024-03-12T17:35:20.090Z,9.70
2024-03-12T17:37:52.871Z,9.70
2024-03-12T17:40:23.479Z,9.70
2024-03-12T17:42:52.144Z,9.70
2024-03-12T17:45:21.421Z,9.60
2024-03-12T17:47:51.784Z,9.60
2024-03-12T17:50:21.325Z,9.60
2024-03-12T17:52:51.085Z,9.60
2024-03-12T17:55:20.824Z,9.50
2024-03-12T17:57:52.054Z,9.50
2024-03-12T18:00:22.083Z,9.50
2024-03-12T18:02:51.120Z,9.40
2024-03-12T18:05:21.760Z,9.40
2024-03-12T18:07:53.895Z,9.40
2024-03-12T18:10:25.073Z,9.40
2024-03-12T18:12:55.484Z,9.40
2024-03-12T18:15:24.498Z,9.40
2024-03-12T18:17:53.541Z,9.50
2024-03-12T18:20:25.167Z,9.40
2024-03-12T18:22:54.289Z,9.30
2024-03-12T18:25:22.778Z,9.40
2024-03-12T18:27:54.584Z,9.40
2024-03-12T18:30:24.083Z,9.40
2024-03-12T18:32:54.885Z,9.40
2024-03-12T18:35:23.057Z,9.40
2024-03-12T18:37:51.910Z,9.40
2024-03-12T18:40:20.697Z,9.30
2024-03-12T18:42:49.545Z,9.30
2024-03-12T18:45:20.484Z,9.30
2024-03-12T18:47:51.224Z,9.30
2024-03-12T18:50:21.734Z,9.40
2024-03-12T18:52:50.845Z,9.40
2024-03-12T18:55:19.808Z,9.40
2024-03-12T18:57:48.480Z,9.30
2024-03-12T19:00:20.439Z,9.30
2024-03-12T19:02:52.733Z,9.30
2024-03-12T19:05:24.937Z,9.30
2024-03-12T19:07:56.380Z,9.20
2024-03-12T19:10:30.001Z,9.20
2024-03-12T19:12:59.142Z,9.20
2024-03-12T19:15:34.760Z,9.20
2024-03-12T19:18:13.707Z,9.20
2024-03-12T19:20:42.620Z,9.20
2024-03-12T19:23:12.356Z,9.20
2024-03-12T19:25:40.409Z,9.10
2024-03-12T19:28:08.922Z,9.10
2024-03-12T19:30:38.565Z,9.00
2024-03-12T19:33:10.153Z,9.00
2024-03-12T19:35:40.011Z,9.00
2024-03-12T19:38:08.877Z,9.00
2024-03-12T19:40:37.310Z,9.00
2024-03-12T19:43:05.876Z,9.00
2024-03-12T19:45:35.312Z,8.90
2024-03-12T19:48:04.088Z,8.90
2024-03-12T19:50:33.975Z,8.90
2024-03-12T19:53:03.986Z,8.90
2024-03-12T19:55:32.167Z,8.90
2024-03-12T19:58:01.894Z,8.80
2024-03-12T20:00:31.676Z,8.80
2024-03-12T20:03:01.516Z,8.70
2024-03-12T20:05:31.217Z,8.70
2024-03-12T20:08:03.208Z,8.60
2024-03-12T20:10:31.311Z,8.60
2024-03-12T20:12:59.850Z,8.60
2024-03-12T20:15:31.640Z,8.60
2024-03-12T20:18:00.447Z,8.60
2024-03-12T20:20:28.865Z,8.60
2024-03-12T20:22:59.631Z,8.60
2024-03-12T20:25:30.489Z,8.50
2024-03-12T20:27:58.699Z,8.50
2024-03-12T20:30:28.870Z,8.50
2024-03-12T20:32:59.014Z,8.50
2024-03-12T20:35:28.943Z,8.40
2024-03-12T20:37:57.533Z,8.50
2024-03-12T20:40:26.863Z,8.40
2024-03-12T20:42:59.768Z,8.40
2024-03-12T20:45:28.583Z,8.40
2024-03-12T20:47:56.853Z,8.40
2024-03-12T20:50:25.608Z,8.40
2024-03-12T20:52:53.535Z,8.40
2024-03-12T20:55:22.270Z,8.40
2024-03-12T20:57:52.061Z,8.30
2024-03-12T21:00:29.204Z,8.30
2024-03-12T21:02:57.690Z,8.30
2024-03-12T21:05:28.006Z,8.30
2024-03-12T21:07:56.049Z,8.30
2024-03-12T21:10:24.113Z,8.30
2024-03-12T21:12:52.825Z,8.30
2024-03-12T21:15:23.301Z,8.30
2024-03-12T21:17:51.536Z,8.30
2024-03-12T21:20:23.042Z,8.20
2024-03-12T21:22:52.710Z,8.30
2024-03-12T21:25:21.158Z,8.20
2024-03-12T21:27:49.233Z,8.20
2024-03-12T21:30:18.996Z,8.20
2024-03-12T21:32:49.245Z,8.20
2024-03-12T21:35:17.563Z,8.20
2024-03-12T21:37:45.849Z,8.20
2024-03-12T21:40:14.132Z,8.10
2024-03-12T21:42:43.602Z,8.10
2024-03-12T21:45:13.133Z,8.10
2024-03-12T21:47:43.754Z,8.10
2024-03-12T21:50:14.785Z,8.10
2024-03-12T21:52:43.188Z,8.10
2024-03-12T21:55:12.395Z,8.10
2024-03-12T21:57:44.965Z,8.10
2024-03-12T22:00:20.158Z,8.10
2024-03-12T22:02:49.113Z,8.10
2024-03-12T22:05:20.835Z,8.10
2024-03-12T22:07:50.184Z,8.10
2024-03-12T22:10:18.767Z,8.00
2024-03-12T22:12:48.018Z,8.10
2024-03-12T22:15:16.976Z,8.10
2024-03-12T22:17:46.495Z,8.00
2024-03-12T22:20:19.030Z,8.00
2024-03-12T22:22:48.426Z,8.00
2024-03-12T22:25:17.537Z,8.00
2024-03-12T22:27:47.344Z,8.00
2024-03-12T22:30:17.585Z,8.00
2024-03-12T22:32:48.013Z,8.00
2024-03-12T22:35:16.457Z,8.00
2024-03-12T22:37:48.958Z,8.00
2024-03-12T22:40:20.105Z,8.00
2024-03-12T22:42:48.737Z,8.00
2024-03-12T22:45:17.307Z,8.00
2024-03-12T22:47:48.890Z,7.90
2024-03-12T22:50:18.465Z,7.90
2024-03-12T22:52:49.018Z,8.00
2024-03-12T22:55:19.262Z,8.00
2024-03-12T22:57:47.734Z,8.00
2024-03-12T23:00:33.873Z,8.00
2024-03-12T23:03:03.536Z,8.00
2024-03-12T23:05:34.642Z,8.00
2024-03-12T23:08:06.091Z,7.90
2024-03-12T23:10:36.633Z,8.00
2024-03-12T23:13:05.268Z,8.00
2024-03-12T23:15:36.620Z,7.90
2024-03-12T23:18:05.377Z,7.90
2024-03-12T23:20:35.394Z,7.90
2024-03-12T23:23:03.887Z,7.90
2024-03-12T23:25:32.139Z,7.90
2024-03-12T23:28:05.027Z,7.90
2024-03-12T23:30:34.839Z,7.90
2024-03-12T23:33:03.172Z,7.90
2024-03-12T23:35:34.375Z,7.90
2024-03-12T23:38:03.558Z,7.90
2024-03-12T23:40:31.571Z,8.00
2024-03-12T23:42:59.529Z,8.00
2024-03-12T23:45:28.849Z,8.00
2024-03-12T23:47:58.237Z,8.00
2024-03-12T23:50:26.647Z,8.00
2024-03-12T23:52:55.742Z,8.00
2024-03-12T23:55:23.848Z,8.00
2024-03-12T23:57:54.883Z,8.10
